sensor_id;sensor_type;location;lat;lon;timestamp;P1;durP1;ratioP1;P2;durP2;ratioP2
18376;SDS011;9315;52.624;13.544;2022-07-22T00:02:25;10.90;;;7.00;;
18376;SDS011;9315;52.624;13.544;2022-07-22T00:04:52;11.30;;;7.28;;
18376;SDS011;9315;52.624;13.544;2022-07-22T00:07:19;10.63;;;6.93;;
18376;SDS011;9315;52.624;13.544;2022-07-22T00:09:46;8.30;;;7.40;;
18376;SDS011;9315;52.624;13.544;2022-07-22T00:12:14;8.48;;;7.40;;
18376;SDS011;9315;52.624;13.544;2022-07-22T00:14:41;10.40;;;7.32;;
18376;SDS011;9315;52.624;13.544;2022-07-22T00:17:08;9.60;;;7.15;;
18376;SDS011;9315;52.624;13.544;2022-07-22T00:19:36;7.80;;;7.00;;
18376;SDS011;9315;52.624;13.544;2022-07-22T00:22:03;9.13;;;6.78;;
18376;SDS011;9315;52.624;13.544;2022-07-22T00:24:30;7.80;;;7.05;;
18376;SDS011;9315;52.624;13.544;2022-07-22T00:26:58;8.23;;;7.00;;
18376;SDS011;9315;52.624;13.544;2022-07-22T00:29:25;9.32;;;6.90;;
18376;SDS011;9315;52.624;13.544;2022-07-22T00:31:52;12.00;;;7.95;;
18376;SDS011;9315;52.624;13.544;2022-07-22T00:34:19;9.93;;;7.57;;
18376;SDS011;9315;52.624;13.544;2022-07-22T00:36:47;9.27;;;7.32;;
18376;SDS011;9315;52.624;13.544;2022-07-22T00:39:14;10.48;;;7.40;;
18376;SDS011;9315;52.624;13.544;2022-07-22T00:41:41;8.43;;;7.53;;
18376;SDS011;9315;52.624;13.544;2022-07-22T00:44:09;8.35;;;6.93;;
18376;SDS011;9315;52.624;13.544;2022-07-22T00:46:38;10.20;;;7.20;;
18376;SDS011;9315;52.624;13.544;2022-07-22T00:49:05;8.70;;;7.03;;
18376;SDS011;9315;52.624;13.544;2022-07-22T00:51:35;10.85;;;7.00;;
18376;SDS011;9315;52.624;13.544;2022-07-22T00:54:03;12.73;;;7.10;;
18376;SDS011;9315;52.624;13.544;2022-07-22T00:56:31;10.73;;;6.50;;
18376;SDS011;9315;52.624;13.544;2022-07-22T00:59:00;8.35;;;6.47;;
18376;SDS011;9315;52.624;13.544;2022-07-22T01:01:30;8.57;;;6.05;;
18376;SDS011;9315;52.624;13.544;2022-07-22T01:03:58;6.53;;;5.93;;
18376;SDS011;9315;52.624;13.544;2022-07-22T01:06:30;7.30;;;5.53;;
18376;SDS011;9315;52.624;13.544;2022-07-22T01:08:57;7.93;;;6.40;;
18376;SDS011;9315;52.624;13.544;2022-07-22T01:11:26;7.13;;;5.47;;
18376;SDS011;9315;52.624;13.544;2022-07-22T01:13:54;8.75;;;5.53;;
18376;SDS011;9315;52.624;13.544;2022-07-22T01:16:22;7.22;;;5.32;;
18376;SDS011;9315;52.624;13.544;2022-07-22T01:18:51;8.57;;;4.78;;
18376;SDS011;9315;52.624;13.544;2022-07-22T01:21:21;6.25;;;5.22;;
18376;SDS011;9315;52.624;13.544;2022-07-22T01:23:48;6.60;;;5.15;;
18376;SDS011;9315;52.624;13.544;2022-07-22T01:26:16;6.55;;;4.97;;
18376;SDS011;9315;52.624;13.544;2022-07-22T01:28:44;5.68;;;4.50;;
18376;SDS011;9315;52.624;13.544;2022-07-22T01:31:12;6.80;;;4.63;;
18376;SDS011;9315;52.624;13.544;2022-07-22T01:33:39;4.57;;;3.70;;
18376;SDS011;9315;52.624;13.544;2022-07-22T01:36:07;5.68;;;4.20;;
18376;SDS011;9315;52.624;13.544;2022-07-22T01:38:35;6.13;;;4.00;;
18376;SDS011;9315;52.624;13.544;2022-07-22T01:41:03;4.13;;;3.60;;
18376;SDS011;9315;52.624;13.544;2022-07-22T01:43:33;7.47;;;3.95;;
18376;SDS011;9315;52.624;13.544;2022-07-22T01:46:01;6.18;;;4.05;;
18376;SDS011;9315;52.624;13.544;2022-07-22T01:48:29;8.10;;;4.20;;
18376;SDS011;9315;52.624;13.544;2022-07-22T01:50:56;6.82;;;4.13;;
18376;SDS011;9315;52.624;13.544;2022-07-22T01:53:24;4.82;;;3.70;;
18376;SDS011;9315;52.624;13.544;2022-07-22T01:55:52;4.00;;;3.65;;
18376;SDS011;9315;52.624;13.544;2022-07-22T01:58:19;3.97;;;3.58;;
18376;SDS011;9315;52.624;13.544;2022-07-22T02:00:47;5.20;;;3.30;;
18376;SDS011;9315;52.624;13.544;2022-07-22T02:03:15;5.28;;;3.50;;
18376;SDS011;9315;52.624;13.544;2022-07-22T02:05:43;4.20;;;3.80;;
18376;SDS011;9315;52.624;13.544;2022-07-22T02:08:11;5.72;;;4.07;;
18376;SDS011;9315;52.624;13.544;2022-07-22T02:10:40;6.90;;;3.50;;
18376;SDS011;9315;52.624;13.544;2022-07-22T02:13:07;4.22;;;3.75;;
18376;SDS011;9315;52.624;13.544;2022-07-22T02:15:35;6.70;;;3.60;;
18376;SDS011;9315;52.624;13.544;2022-07-22T02:18:10;5.45;;;4.15;;
18376;SDS011;9315;52.624;13.544;2022-07-22T02:20:44;5.88;;;4.47;;
18376;SDS011;9315;52.624;13.544;2022-07-22T02:23:12;5.97;;;4.07;;
18376;SDS011;9315;52.624;13.544;2022-07-22T02:25:40;4.95;;;3.78;;
18376;SDS011;9315;52.624;13.544;2022-07-22T02:28:08;5.00;;;3.97;;
18376;SDS011;9315;52.624;13.544;2022-07-22T02:30:36;5.50;;;3.85;;
18376;SDS011;9315;52.624;13.544;2022-07-22T02:33:04;4.03;;;3.63;;
18376;SDS011;9315;52.624;13.544;2022-07-22T02:35:37;4.70;;;3.90;;
18376;SDS011;9315;52.624;13.544;2022-07-22T02:38:04;4.75;;;4.00;;
18376;SDS011;9315;52.624;13.544;2022-07-22T02:40:35;4.75;;;4.00;;
18376;SDS011;9315;52.624;13.544;2022-07-22T02:43:02;7.00;;;4.10;;
18376;SDS011;9315;52.624;13.544;2022-07-22T02:45:32;5.28;;;3.97;;
18376;SDS011;9315;52.624;13.544;2022-07-22T02:48:00;7.05;;;3.85;;
18376;SDS011;9315;52.624;13.544;2022-07-22T02:50:28;5.60;;;4.10;;
18376;SDS011;9315;52.624;13.544;2022-07-22T02:52:55;7.75;;;4.03;;
18376;SDS011;9315;52.624;13.544;2022-07-22T02:55:22;6.32;;;3.72;;
18376;SDS011;9315;52.624;13.544;2022-07-22T02:57:49;8.10;;;4.40;;
18376;SDS011;9315;52.624;13.544;2022-07-22T03:00:16;6.68;;;4.00;;
18376;SDS011;9315;52.624;13.544;2022-07-22T03:02:46;5.93;;;4.22;;
18376;SDS011;9315;52.624;13.544;2022-07-22T03:05:14;4.85;;;4.13;;
18376;SDS011;9315;52.624;13.544;2022-07-22T03:07:41;4.72;;;4.28;;
18376;SDS011;9315;52.624;13.544;2022-07-22T03:10:08;7.13;;;4.38;;
18376;SDS011;9315;52.624;13.544;2022-07-22T03:12:36;6.55;;;4.47;;
18376;SDS011;9315;52.624;13.544;2022-07-22T03:15:04;5.78;;;4.50;;
18376;SDS011;9315;52.624;13.544;2022-07-22T03:17:35;5.00;;;4.50;;
18376;SDS011;9315;52.624;13.544;2022-07-22T03:20:04;7.50;;;4.53;;
18376;SDS011;9315;52.624;13.544;2022-07-22T03:22:36;5.28;;;4.32;;
18376;SDS011;9315;52.624;13.544;2022-07-22T03:25:03;14.00;;;4.70;;
18376;SDS011;9315;52.624;13.544;2022-07-22T03:27:31;7.32;;;4.78;;
18376;SDS011;9315;52.624;13.544;2022-07-22T03:29:59;6.75;;;4.97;;
18376;SDS011;9315;52.624;13.544;2022-07-22T03:32:26;7.32;;;5.43;;
18376;SDS011;9315;52.624;13.544;2022-07-22T03:34:53;8.50;;;4.95;;
18376;SDS011;9315;52.624;13.544;2022-07-22T03:37:29;6.95;;;5.38;;
18376;SDS011;9315;52.624;13.544;2022-07-22T03:39:57;8.15;;;4.88;;
18376;SDS011;9315;52.624;13.544;2022-07-22T03:42:24;6.90;;;5.20;;
18376;SDS011;9315;52.624;13.544;2022-07-22T03:44:51;6.50;;;4.82;;
18376;SDS011;9315;52.624;13.544;2022-07-22T03:47:19;5.53;;;5.00;;
18376;SDS011;9315;52.624;13.544;2022-07-22T03:49:49;5.90;;;5.25;;
18376;SDS011;9315;52.624;13.544;2022-07-22T03:52:17;5.95;;;5.30;;
18376;SDS011;9315;52.624;13.544;2022-07-22T03:54:44;8.52;;;5.25;;
18376;SDS011;9315;52.624;13.544;2022-07-22T03:57:12;11.18;;;5.65;;
18376;SDS011;9315;52.624;13.544;2022-07-22T03:59:39;7.25;;;5.53;;
18376;SDS011;9315;52.624;13.544;2022-07-22T04:02:15;8.45;;;6.00;;
18376;SDS011;9315;52.624;13.544;2022-07-22T04:04:44;8.95;;;6.03;;
18376;SDS011;9315;52.624;13.544;2022-07-22T04:07:11;10.63;;;6.95;;
18376;SDS011;9315;52.624;13.544;2022-07-22T04:09:39;8.05;;;6.82;;
18376;SDS011;9315;52.624;13.544;2022-07-22T04:12:13;7.43;;;6.60;;
18376;SDS011;9315;52.624;13.544;2022-07-22T04:14:41;10.63;;;6.93;;
18376;SDS011;9315;52.624;13.544;2022-07-22T04:17:11;10.85;;;7.35;;
18376;SDS011;9315;52.624;13.544;2022-07-22T04:19:41;10.88;;;6.38;;
18376;SDS011;9315;52.624;13.544;2022-07-22T04:22:08;7.35;;;6.45;;
18376;SDS011;9315;52.624;13.544;2022-07-22T04:24:38;10.15;;;6.63;;
18376;SDS011;9315;52.624;13.544;2022-07-22T04:29:43;9.45;;;7.57;;
18376;SDS011;9315;52.624;13.544;2022-07-22T04:32:11;9.10;;;6.93;;
18376;SDS011;9315;52.624;13.544;2022-07-22T04:37:41;8.57;;;6.60;;
18376;SDS011;9315;52.624;13.544;2022-07-22T04:40:23;8.15;;;7.32;;
18376;SDS011;9315;52.624;13.544;2022-07-22T04:42:58;9.90;;;7.55;;
18376;SDS011;9315;52.624;13.544;2022-07-22T04:45:29;8.40;;;7.07;;
18376;SDS011;9315;52.624;13.544;2022-07-22T04:48:54;10.18;;;7.93;;
18376;SDS011;9315;52.624;13.544;2022-07-22T04:51:27;14.27;;;7.72;;
18376;SDS011;9315;52.624;13.544;2022-07-22T04:53:55;9.88;;;7.80;;
18376;SDS011;9315;52.624;13.544;2022-07-22T04:56:32;11.50;;;7.88;;
18376;SDS011;9315;52.624;13.544;2022-07-22T04:58:59;10.95;;;7.65;;
18376;SDS011;9315;52.624;13.544;2022-07-22T05:01:38;10.80;;;7.72;;
18376;SDS011;9315;52.624;13.544;2022-07-22T05:04:08;8.88;;;7.72;;
18376;SDS011;9315;52.624;13.544;2022-07-22T05:06:38;9.70;;;7.88;;
18376;SDS011;9315;52.624;13.544;2022-07-22T05:09:06;11.63;;;7.30;;
18376;SDS011;9315;52.624;13.544;2022-07-22T05:11:39;10.60;;;8.18;;
18376;SDS011;9315;52.624;13.544;2022-07-22T05:14:15;11.18;;;8.00;;
18376;SDS011;9315;52.624;13.544;2022-07-22T05:16:44;11.20;;;8.77;;
18376;SDS011;9315;52.624;13.544;2022-07-22T05:19:12;11.35;;;10.23;;
18376;SDS011;9315;52.624;13.544;2022-07-22T05:21:40;11.23;;;9.18;;
18376;SDS011;9315;52.624;13.544;2022-07-22T05:24:07;13.75;;;10.07;;
18376;SDS011;9315;52.624;13.544;2022-07-22T05:27:51;16.48;;;8.57;;
18376;SDS011;9315;52.624;13.544;2022-07-22T05:30:20;13.07;;;10.07;;
18376;SDS011;9315;52.624;13.544;2022-07-22T05:33:01;13.27;;;10.02;;
18376;SDS011;9315;52.624;13.544;2022-07-22T05:35:31;11.52;;;10.07;;
18376;SDS011;9315;52.624;13.544;2022-07-22T05:37:59;12.15;;;9.65;;
18376;SDS011;9315;52.624;13.544;2022-07-22T05:40:29;15.18;;;10.65;;
18376;SDS011;9315;52.624;13.544;2022-07-22T05:43:06;11.77;;;9.88;;
18376;SDS011;9315;52.624;13.544;2022-07-22T05:45:43;13.30;;;10.20;;
18376;SDS011;9315;52.624;13.544;2022-07-22T05:48:24;12.13;;;9.27;;
18376;SDS011;9315;52.624;13.544;2022-07-22T05:51:14;15.27;;;11.00;;
18376;SDS011;9315;52.624;13.544;2022-07-22T05:53:41;13.43;;;9.77;;
18376;SDS011;9315;52.624;13.544;2022-07-22T05:56:10;8.40;;;7.25;;
18376;SDS011;9315;52.624;13.544;2022-07-22T05:58:38;13.77;;;9.88;;
18376;SDS011;9315;52.624;13.544;2022-07-22T06:01:18;11.65;;;10.52;;
18376;SDS011;9315;52.624;13.544;2022-07-22T06:04:12;11.57;;;10.38;;
18376;SDS011;9315;52.624;13.544;2022-07-22T06:06:45;13.18;;;10.60;;
18376;SDS011;9315;52.624;13.544;2022-07-22T06:10:02;12.77;;;9.35;;
18376;SDS011;9315;52.624;13.544;2022-07-22T06:12:46;11.18;;;9.90;;
18376;SDS011;9315;52.624;13.544;2022-07-22T06:15:58;12.35;;;9.50;;
18376;SDS011;9315;52.624;13.544;2022-07-22T06:21:43;10.95;;;8.93;;
18376;SDS011;9315;52.624;13.544;2022-07-22T06:24:16;13.18;;;9.90;;
18376;SDS011;9315;52.624;13.544;2022-07-22T06:27:09;11.20;;;8.38;;
18376;SDS011;9315;52.624;13.544;2022-07-22T06:29:48;9.60;;;8.52;;
18376;SDS011;9315;52.624;13.544;2022-07-22T06:32:39;10.75;;;9.07;;
18376;SDS011;9315;52.624;13.544;2022-07-22T06:35:14;11.40;;;8.65;;
18376;SDS011;9315;52.624;13.544;2022-07-22T06:38:08;9.77;;;8.00;;
18376;SDS011;9315;52.624;13.544;2022-07-22T06:41:14;9.30;;;8.32;;
18376;SDS011;9315;52.624;13.544;2022-07-22T06:43:48;10.10;;;8.02;;
18376;SDS011;9315;52.624;13.544;2022-07-22T06:46:22;14.40;;;8.25;;
18376;SDS011;9315;52.624;13.544;2022-07-22T06:52:20;11.27;;;8.32;;
18376;SDS011;9315;52.624;13.544;2022-07-22T06:56:04;10.00;;;7.22;;
18376;SDS011;9315;52.624;13.544;2022-07-22T06:59:04;12.40;;;7.95;;
18376;SDS011;9315;52.624;13.544;2022-07-22T07:01:37;9.85;;;8.30;;
18376;SDS011;9315;52.624;13.544;2022-07-22T07:04:11;9.73;;;8.50;;
18376;SDS011;9315;52.624;13.544;2022-07-22T07:06:42;11.48;;;7.72;;
18376;SDS011;9315;52.624;13.544;2022-07-22T07:09:12;9.65;;;7.78;;
18376;SDS011;9315;52.624;13.544;2022-07-22T07:11:54;8.65;;;7.75;;
18376;SDS011;9315;52.624;13.544;2022-07-22T07:14:25;9.80;;;7.43;;
18376;SDS011;9315;52.624;13.544;2022-07-22T07:17:10;8.85;;;7.95;;
18376;SDS011;9315;52.624;13.544;2022-07-22T07:19:50;10.07;;;7.55;;
18376;SDS011;9315;52.624;13.544;2022-07-22T07:34:07;9.10;;;7.75;;
18376;SDS011;9315;52.624;13.544;2022-07-22T07:39:36;8.20;;;7.40;;
18376;SDS011;9315;52.624;13.544;2022-07-22T07:42:07;11.13;;;7.32;;
18376;SDS011;9315;52.624;13.544;2022-07-22T07:47:40;7.90;;;7.10;;
18376;SDS011;9315;52.624;13.544;2022-07-22T07:50:12;8.40;;;7.32;;
18376;SDS011;9315;52.624;13.544;2022-07-22T07:53:38;6.65;;;5.97;;
18376;SDS011;9315;52.624;13.544;2022-07-22T07:56:26;7.95;;;6.38;;
18376;SDS011;9315;52.624;13.544;2022-07-22T07:58:54;9.10;;;6.45;;
18376;SDS011;9315;52.624;13.544;2022-07-22T08:01:53;10.10;;;6.40;;
18376;SDS011;9315;52.624;13.544;2022-07-22T08:04:24;7.47;;;5.88;;
18376;SDS011;9315;52.624;13.544;2022-07-22T08:07:06;8.38;;;6.70;;
18376;SDS011;9315;52.624;13.544;2022-07-22T08:09:37;7.22;;;5.97;;
18376;SDS011;9315;52.624;13.544;2022-07-22T08:12:10;7.20;;;6.32;;
18376;SDS011;9315;52.624;13.544;2022-07-22T08:14:38;6.78;;;5.22;;
18376;SDS011;9315;52.624;13.544;2022-07-22T08:17:30;8.10;;;4.80;;
18376;SDS011;9315;52.624;13.544;2022-07-22T08:19:59;6.47;;;4.65;;
18376;SDS011;9315;52.624;13.544;2022-07-22T08:22:36;4.97;;;4.53;;
18376;SDS011;9315;52.624;13.544;2022-07-22T08:25:08;10.50;;;5.90;;
18376;SDS011;9315;52.624;13.544;2022-07-22T08:27:38;4.65;;;4.25;;
18376;SDS011;9315;52.624;13.544;2022-07-22T08:30:06;4.90;;;4.15;;
18376;SDS011;9315;52.624;13.544;2022-07-22T08:32:34;4.90;;;4.40;;
18376;SDS011;9315;52.624;13.544;2022-07-22T08:35:10;6.45;;;4.38;;
18376;SDS011;9315;52.624;13.544;2022-07-22T08:38:03;4.95;;;4.55;;
18376;SDS011;9315;52.624;13.544;2022-07-22T08:40:49;4.70;;;4.18;;
18376;SDS011;9315;52.624;13.544;2022-07-22T08:43:28;5.60;;;4.38;;
18376;SDS011;9315;52.624;13.544;2022-07-22T08:45:56;4.57;;;3.92;;
18376;SDS011;9315;52.624;13.544;2022-07-22T08:48:25;4.43;;;3.25;;
18376;SDS011;9315;52.624;13.544;2022-07-22T08:51:13;3.80;;;3.40;;
18376;SDS011;9315;52.624;13.544;2022-07-22T08:53:55;4.40;;;3.30;;
18376;SDS011;9315;52.624;13.544;2022-07-22T08:56:23;10.00;;;4.10;;
18376;SDS011;9315;52.624;13.544;2022-07-22T08:58:51;4.45;;;3.88;;
18376;SDS011;9315;52.624;13.544;2022-07-22T09:01:18;4.63;;;3.40;;
18376;SDS011;9315;52.624;13.544;2022-07-22T09:03:56;4.00;;;3.60;;
18376;SDS011;9315;52.624;13.544;2022-07-22T09:06:26;6.20;;;3.38;;
18376;SDS011;9315;52.624;13.544;2022-07-22T09:09:05;3.72;;;3.40;;
18376;SDS011;9315;52.624;13.544;2022-07-22T09:15:29;4.45;;;3.30;;
18376;SDS011;9315;52.624;13.544;2022-07-22T09:18:04;3.70;;;3.20;;
18376;SDS011;9315;52.624;13.544;2022-07-22T09:20:39;3.50;;;3.20;;
18376;SDS011;9315;52.624;13.544;2022-07-22T09:23:14;4.03;;;2.60;;
18376;SDS011;9315;52.624;13.544;2022-07-22T09:25:50;2.90;;;2.70;;
18376;SDS011;9315;52.624;13.544;2022-07-22T09:28:18;5.88;;;3.33;;
18376;SDS011;9315;52.624;13.544;2022-07-22T09:30:51;4.38;;;3.35;;
18376;SDS011;9315;52.624;13.544;2022-07-22T09:33:25;3.97;;;3.20;;
18376;SDS011;9315;52.624;13.544;2022-07-22T09:36:00;6.13;;;3.92;;
18376;SDS011;9315;52.624;13.544;2022-07-22T09:38:31;9.80;;;4.03;;
18376;SDS011;9315;52.624;13.544;2022-07-22T09:40:59;7.07;;;4.20;;
18376;SDS011;9315;52.624;13.544;2022-07-22T09:43:27;5.20;;;4.70;;
18376;SDS011;9315;52.624;13.544;2022-07-22T09:46:01;9.38;;;4.80;;
18376;SDS011;9315;52.624;13.544;2022-07-22T09:48:31;5.68;;;5.18;;
18376;SDS011;9315;52.624;13.544;2022-07-22T09:50:59;7.70;;;5.20;;
18376;SDS011;9315;52.624;13.544;2022-07-22T09:53:27;6.28;;;4.78;;
18376;SDS011;9315;52.624;13.544;2022-07-22T09:55:57;8.02;;;4.82;;
18376;SDS011;9315;52.624;13.544;2022-07-22T09:58:34;5.60;;;4.13;;
18376;SDS011;9315;52.624;13.544;2022-07-22T10:01:03;5.18;;;4.25;;
18376;SDS011;9315;52.624;13.544;2022-07-22T10:03:33;4.72;;;3.95;;
18376;SDS011;9315;52.624;13.544;2022-07-22T10:06:09;5.32;;;4.32;;
18376;SDS011;9315;52.624;13.544;2022-07-22T10:08:36;5.60;;;3.53;;
18376;SDS011;9315;52.624;13.544;2022-07-22T10:11:06;6.13;;;4.25;;
18376;SDS011;9315;52.624;13.544;2022-07-22T10:13:34;4.30;;;3.90;;
18376;SDS011;9315;52.624;13.544;2022-07-22T10:16:18;4.38;;;3.88;;
18376;SDS011;9315;52.624;13.544;2022-07-22T10:18:49;5.72;;;4.00;;
18376;SDS011;9315;52.624;13.544;2022-07-22T10:21:32;7.18;;;3.83;;
18376;SDS011;9315;52.624;13.544;2022-07-22T10:24:07;4.57;;;3.10;;
18376;SDS011;9315;52.624;13.544;2022-07-22T10:26:52;4.05;;;3.40;;
18376;SDS011;9315;52.624;13.544;2022-07-22T10:29:57;4.18;;;2.90;;
18376;SDS011;9315;52.624;13.544;2022-07-22T10:43:19;3.10;;;1.50;;
18376;SDS011;9315;52.624;13.544;2022-07-22T10:51:11;3.53;;;1.65;;
18376;SDS011;9315;52.624;13.544;2022-07-22T10:53:45;2.75;;;1.30;;
18376;SDS011;9315;52.624;13.544;2022-07-22T10:56:32;1.48;;;1.38;;
18376;SDS011;9315;52.624;13.544;2022-07-22T10:59:08;3.40;;;1.80;;
18376;SDS011;9315;52.624;13.544;2022-07-22T11:01:42;1.90;;;1.80;;
18376;SDS011;9315;52.624;13.544;2022-07-22T11:04:20;1.90;;;1.80;;
18376;SDS011;9315;52.624;13.544;2022-07-22T11:06:52;2.22;;;2.03;;
18376;SDS011;9315;52.624;13.544;2022-07-22T11:09:23;3.15;;;2.70;;
18376;SDS011;9315;52.624;13.544;2022-07-22T11:12:01;4.60;;;2.38;;
18376;SDS011;9315;52.624;13.544;2022-07-22T11:14:31;2.58;;;2.38;;
18376;SDS011;9315;52.624;13.544;2022-07-22T11:17:11;4.22;;;3.03;;
18376;SDS011;9315;52.624;13.544;2022-07-22T11:19:42;3.25;;;2.58;;
18376;SDS011;9315;52.624;13.544;2022-07-22T11:22:11;3.05;;;2.80;;
18376;SDS011;9315;52.624;13.544;2022-07-22T11:24:41;2.80;;;2.60;;
18376;SDS011;9315;52.624;13.544;2022-07-22T11:27:19;3.72;;;3.17;;
18376;SDS011;9315;52.624;13.544;2022-07-22T11:29:49;3.58;;;3.28;;
18376;SDS011;9315;52.624;13.544;2022-07-22T11:32:21;4.30;;;3.20;;
18376;SDS011;9315;52.624;13.544;2022-07-22T11:35:13;3.63;;;3.10;;
18376;SDS011;9315;52.624;13.544;2022-07-22T11:37:41;3.40;;;3.10;;
18376;SDS011;9315;52.624;13.544;2022-07-22T11:40:09;4.32;;;3.33;;
18376;SDS011;9315;52.624;13.544;2022-07-22T11:42:37;5.93;;;3.60;;
18376;SDS011;9315;52.624;13.544;2022-07-22T11:45:04;3.30;;;3.00;;
18376;SDS011;9315;52.624;13.544;2022-07-22T11:47:35;4.93;;;3.10;;
18376;SDS011;9315;52.624;13.544;2022-07-22T11:50:02;3.97;;;3.65;;
18376;SDS011;9315;52.624;13.544;2022-07-22T11:52:30;5.30;;;3.83;;
18376;SDS011;9315;52.624;13.544;2022-07-22T11:54:57;6.40;;;3.88;;
18376;SDS011;9315;52.624;13.544;2022-07-22T11:57:24;3.63;;;3.33;;
18376;SDS011;9315;52.624;13.544;2022-07-22T11:59:51;3.92;;;3.40;;
18376;SDS011;9315;52.624;13.544;2022-07-22T12:02:18;5.38;;;3.80;;
18376;SDS011;9315;52.624;13.544;2022-07-22T12:04:45;5.13;;;4.20;;
18376;SDS011;9315;52.624;13.544;2022-07-22T12:07:13;5.55;;;4.30;;
18376;SDS011;9315;52.624;13.544;2022-07-22T12:09:41;3.97;;;3.60;;
18376;SDS011;9315;52.624;13.544;2022-07-22T12:12:09;3.70;;;3.40;;
18376;SDS011;9315;52.624;13.544;2022-07-22T12:14:36;4.10;;;3.75;;
18376;SDS011;9315;52.624;13.544;2022-07-22T12:17:14;6.57;;;4.00;;
18376;SDS011;9315;52.624;13.544;2022-07-22T12:19:42;3.97;;;3.67;;
18376;SDS011;9315;52.624;13.544;2022-07-22T12:22:10;4.28;;;3.50;;
18376;SDS011;9315;52.624;13.544;2022-07-22T12:25:01;6.22;;;3.78;;
18376;SDS011;9315;52.624;13.544;2022-07-22T12:27:28;3.75;;;3.30;;
18376;SDS011;9315;52.624;13.544;2022-07-22T12:29:56;3.50;;;3.20;;
18376;SDS011;9315;52.624;13.544;2022-07-22T12:32:24;3.03;;;2.80;;
18376;SDS011;9315;52.624;13.544;2022-07-22T12:34:59;2.95;;;2.75;;
18376;SDS011;9315;52.624;13.544;2022-07-22T12:37:30;4.53;;;2.60;;
18376;SDS011;9315;52.624;13.544;2022-07-22T12:43:00;2.72;;;2.53;;
18376;SDS011;9315;52.624;13.544;2022-07-22T12:45:36;7.65;;;2.25;;
18376;SDS011;9315;52.624;13.544;2022-07-22T12:48:06;2.30;;;2.08;;
18376;SDS011;9315;52.624;13.544;2022-07-22T12:53:29;3.17;;;2.00;;
18376;SDS011;9315;52.624;13.544;2022-07-22T12:55:59;1.90;;;1.52;;
18376;SDS011;9315;52.624;13.544;2022-07-22T12:58:29;3.03;;;2.10;;
18376;SDS011;9315;52.624;13.544;2022-07-22T13:00:58;1.95;;;1.85;;
18376;SDS011;9315;52.624;13.544;2022-07-22T13:03:27;2.13;;;1.60;;
18376;SDS011;9315;52.624;13.544;2022-07-22T13:05:57;1.67;;;1.58;;
18376;SDS011;9315;52.624;13.544;2022-07-22T13:08:28;2.17;;;1.45;;
18376;SDS011;9315;52.624;13.544;2022-07-22T13:11:11;3.92;;;1.27;;
18376;SDS011;9315;52.624;13.544;2022-07-22T13:13:39;2.47;;;1.40;;
18376;SDS011;9315;52.624;13.544;2022-07-22T13:16:08;1.83;;;1.30;;
18376;SDS011;9315;52.624;13.544;2022-07-22T13:18:36;1.67;;;1.58;;
18376;SDS011;9315;52.624;13.544;2022-07-22T13:21:03;2.95;;;2.10;;
18376;SDS011;9315;52.624;13.544;2022-07-22T13:23:30;1.88;;;1.77;;
18376;SDS011;9315;52.624;13.544;2022-07-22T13:25:57;1.70;;;1.60;;
18376;SDS011;9315;52.624;13.544;2022-07-22T13:28:24;5.22;;;2.03;;
18376;SDS011;9315;52.624;13.544;2022-07-22T13:30:51;1.55;;;1.40;;
18376;SDS011;9315;52.624;13.544;2022-07-22T13:33:19;5.68;;;1.35;;
18376;SDS011;9315;52.624;13.544;2022-07-22T13:35:46;2.65;;;1.75;;
18376;SDS011;9315;52.624;13.544;2022-07-22T13:38:13;3.63;;;1.73;;
18376;SDS011;9315;52.624;13.544;2022-07-22T13:40:43;2.28;;;1.80;;
18376;SDS011;9315;52.624;13.544;2022-07-22T13:43:18;2.47;;;2.08;;
18376;SDS011;9315;52.624;13.544;2022-07-22T13:45:49;2.28;;;1.70;;
18376;SDS011;9315;52.624;13.544;2022-07-22T13:48:18;2.95;;;1.80;;
18376;SDS011;9315;52.624;13.544;2022-07-22T13:50:46;4.63;;;1.80;;
18376;SDS011;9315;52.624;13.544;2022-07-22T13:53:14;2.03;;;1.63;;
18376;SDS011;9315;52.624;13.544;2022-07-22T13:55:41;1.63;;;1.52;;
18376;SDS011;9315;52.624;13.544;2022-07-22T13:58:08;1.58;;;1.48;;
18376;SDS011;9315;52.624;13.544;2022-07-22T14:00:36;4.32;;;1.58;;
18376;SDS011;9315;52.624;13.544;2022-07-22T14:03:04;1.70;;;1.60;;
18376;SDS011;9315;52.624;13.544;2022-07-22T14:05:32;1.20;;;1.20;;
18376;SDS011;9315;52.624;13.544;2022-07-22T14:08:00;2.38;;;1.30;;
18376;SDS011;9315;52.624;13.544;2022-07-22T14:10:27;2.10;;;1.27;;
18376;SDS011;9315;52.624;13.544;2022-07-22T14:12:54;1.20;;;1.10;;
18376;SDS011;9315;52.624;13.544;2022-07-22T14:15:21;1.55;;;1.40;;
18376;SDS011;9315;52.624;13.544;2022-07-22T14:17:48;2.45;;;1.27;;
18376;SDS011;9315;52.624;13.544;2022-07-22T14:20:15;2.35;;;1.10;;
18376;SDS011;9315;52.624;13.544;2022-07-22T14:22:42;1.52;;;1.15;;
18376;SDS011;9315;52.624;13.544;2022-07-22T14:25:09;5.55;;;1.20;;
18376;SDS011;9315;52.624;13.544;2022-07-22T14:27:36;1.50;;;1.40;;
18376;SDS011;9315;52.624;13.544;2022-07-22T14:30:03;4.65;;;1.40;;
18376;SDS011;9315;52.624;13.544;2022-07-22T14:32:31;2.15;;;1.33;;
18376;SDS011;9315;52.624;13.544;2022-07-22T14:34:58;4.18;;;1.20;;
18376;SDS011;9315;52.624;13.544;2022-07-22T14:37:28;1.17;;;1.08;;
18376;SDS011;9315;52.624;13.544;2022-07-22T14:39:55;1.25;;;1.15;;
18376;SDS011;9315;52.624;13.544;2022-07-22T14:42:22;11.73;;;1.63;;
18376;SDS011;9315;52.624;13.544;2022-07-22T14:44:49;1.75;;;1.35;;
18376;SDS011;9315;52.624;13.544;2022-07-22T14:47:16;1.17;;;1.15;;
18376;SDS011;9315;52.624;13.544;2022-07-22T14:49:43;2.53;;;1.20;;
18376;SDS011;9315;52.624;13.544;2022-07-22T14:52:10;1.67;;;1.13;;
18376;SDS011;9315;52.624;13.544;2022-07-22T14:54:38;3.47;;;1.40;;
18376;SDS011;9315;52.624;13.544;2022-07-22T14:57:05;1.20;;;1.17;;
18376;SDS011;9315;52.624;13.544;2022-07-22T14:59:32;2.10;;;1.13;;
18376;SDS011;9315;52.624;13.544;2022-07-22T15:01:59;1.30;;;1.20;;
18376;SDS011;9315;52.624;13.544;2022-07-22T15:04:26;3.95;;;1.20;;
18376;SDS011;9315;52.624;13.544;2022-07-22T15:06:53;1.40;;;1.30;;
18376;SDS011;9315;52.624;13.544;2022-07-22T15:09:20;13.27;;;1.33;;
18376;SDS011;9315;52.624;13.544;2022-07-22T15:11:47;1.20;;;1.20;;
18376;SDS011;9315;52.624;13.544;2022-07-22T15:14:15;5.32;;;1.38;;
18376;SDS011;9315;52.624;13.544;2022-07-22T15:16:42;3.70;;;1.50;;
18376;SDS011;9315;52.624;13.544;2022-07-22T15:19:09;1.20;;;1.20;;
18376;SDS011;9315;52.624;13.544;2022-07-22T15:21:36;3.13;;;1.52;;
18376;SDS011;9315;52.624;13.544;2022-07-22T15:24:04;3.70;;;1.55;;
18376;SDS011;9315;52.624;13.544;2022-07-22T15:26:32;2.10;;;1.50;;
18376;SDS011;9315;52.624;13.544;2022-07-22T15:28:59;2.00;;;1.80;;
18376;SDS011;9315;52.624;13.544;2022-07-22T15:31:26;1.92;;;1.80;;
18376;SDS011;9315;52.624;13.544;2022-07-22T15:33:54;2.53;;;2.20;;
18376;SDS011;9315;52.624;13.544;2022-07-22T15:36:22;2.90;;;2.70;;
18376;SDS011;9315;52.624;13.544;2022-07-22T15:38:51;2.20;;;2.10;;
18376;SDS011;9315;52.624;13.544;2022-07-22T15:41:25;2.30;;;2.20;;
18376;SDS011;9315;52.624;13.544;2022-07-22T15:43:54;4.63;;;2.40;;
18376;SDS011;9315;52.624;13.544;2022-07-22T15:46:21;4.63;;;1.52;;
18376;SDS011;9315;52.624;13.544;2022-07-22T15:48:49;5.38;;;2.75;;
18376;SDS011;9315;52.624;13.544;2022-07-22T15:51:16;2.60;;;2.50;;
18376;SDS011;9315;52.624;13.544;2022-07-22T15:53:43;3.20;;;3.00;;
18376;SDS011;9315;52.624;13.544;2022-07-22T15:56:13;3.00;;;2.80;;
18376;SDS011;9315;52.624;13.544;2022-07-22T15:58:41;2.90;;;2.65;;
18376;SDS011;9315;52.624;13.544;2022-07-22T16:01:48;2.95;;;2.85;;
18376;SDS011;9315;52.624;13.544;2022-07-22T16:04:15;2.90;;;2.70;;
18376;SDS011;9315;52.624;13.544;2022-07-22T16:06:42;4.30;;;2.97;;
18376;SDS011;9315;52.624;13.544;2022-07-22T16:09:12;4.15;;;2.70;;
18376;SDS011;9315;52.624;13.544;2022-07-22T16:11:41;3.10;;;3.00;;